sensor_id;sensor_type;location;lat;lon;timestamp;P1;durP1;ratioP1;P2;durP2;ratioP2
29700;SDS011;57917;51.380;-0.176;2022-10-24T00:03:28;18.65;;;2.28;;
29700;SDS011;57917;51.380;-0.176;2022-10-24T01:34:17;2.17;;;0.57;;
29700;SDS011;57917;51.380;-0.176;2022-10-24T01:48:39;2.55;;;0.60;;
29700;SDS011;57917;51.380;-0.176;2022-10-24T01:54:30;4.78;;;0.85;;
29700;SDS011;57917;51.380;-0.176;2022-10-24T02:00:19;1.75;;;0.50;;
29700;SDS011;57917;51.380;-0.176;2022-10-24T02:06:18;0.98;;;0.63;;
29700;SDS011;57917;51.380;-0.176;2022-10-24T02:12:09;5.70;;;0.45;;
29700;SDS011;57917;51.380;-0.176;2022-10-24T02:18:00;3.65;;;0.70;;
29700;SDS011;57917;51.380;-0.176;2022-10-24T02:29:47;1.45;;;0.30;;
29700;SDS011;57917;51.380;-0.176;2022-10-24T02:35:40;5.65;;;0.50;;
29700;SDS011;57917;51.380;-0.176;2022-10-24T02:47:21;2.72;;;0.30;;
29700;SDS011;57917;51.380;-0.176;2022-10-24T02:53:12;2.08;;;0.32;;
29700;SDS011;57917;51.380;-0.176;2022-10-24T02:59:00;1.20;;;0.30;;
29700;SDS011;57917;51.380;-0.176;2022-10-24T03:04:47;2.97;;;0.50;;
29700;SDS011;57917;51.380;-0.176;2022-10-24T03:10:34;1.50;;;0.40;;
29700;SDS011;57917;51.380;-0.176;2022-10-24T03:16:23;7.00;;;2.47;;
29700;SDS011;57917;51.380;-0.176;2022-10-24T03:22:13;0.20;;;0.20;;
29700;SDS011;57917;51.380;-0.176;2022-10-24T03:28:00;2.38;;;0.50;;
29700;SDS011;57917;51.380;-0.176;2022-10-24T03:33:46;3.92;;;0.47;;
29700;SDS011;57917;51.380;-0.176;2022-10-24T03:39:33;6.80;;;0.47;;
29700;SDS011;57917;51.380;-0.176;2022-10-24T03:45:23;4.65;;;0.50;;
29700;SDS011;57917;51.380;-0.176;2022-10-24T03:51:12;3.17;;;0.45;;
29700;SDS011;57917;51.380;-0.176;2022-10-24T03:56:58;2.55;;;0.50;;
29700;SDS011;57917;51.380;-0.176;2022-10-24T04:02:45;1.98;;;0.52;;
29700;SDS011;57917;51.380;-0.176;2022-10-24T04:08:33;6.10;;;0.70;;
29700;SDS011;57917;51.380;-0.176;2022-10-24T04:14:22;5.88;;;0.88;;
29700;SDS011;57917;51.380;-0.176;2022-10-24T04:20:09;4.03;;;0.50;;
29700;SDS011;57917;51.380;-0.176;2022-10-24T04:25:56;10.93;;;0.73;;
29700;SDS011;57917;51.380;-0.176;2022-10-24T04:31:43;7.53;;;0.88;;
29700;SDS011;57917;51.380;-0.176;2022-10-24T04:37:30;2.83;;;0.73;;
29700;SDS011;57917;51.380;-0.176;2022-10-24T04:43:19;3.15;;;1.00;;
29700;SDS011;57917;51.380;-0.176;2022-10-24T04:49:07;2.22;;;0.50;;
29700;SDS011;57917;51.380;-0.176;2022-10-24T04:54:55;9.23;;;0.95;;
29700;SDS011;57917;51.380;-0.176;2022-10-24T05:00:43;0.57;;;0.40;;
29700;SDS011;57917;51.380;-0.176;2022-10-24T05:06:34;3.22;;;0.80;;
29700;SDS011;57917;51.380;-0.176;2022-10-24T05:12:21;7.90;;;0.60;;
29700;SDS011;57917;51.380;-0.176;2022-10-24T05:18:09;8.55;;;0.70;;
29700;SDS011;57917;51.380;-0.176;2022-10-24T05:23:56;0.82;;;0.43;;
29700;SDS011;57917;51.380;-0.176;2022-10-24T05:29:46;2.35;;;0.60;;
29700;SDS011;57917;51.380;-0.176;2022-10-24T05:35:33;3.28;;;0.43;;
29700;SDS011;57917;51.380;-0.176;2022-10-24T05:41:22;2.03;;;0.40;;
29700;SDS011;57917;51.380;-0.176;2022-10-24T05:47:09;3.00;;;0.50;;
29700;SDS011;57917;51.380;-0.176;2022-10-24T05:52:56;3.22;;;0.52;;
29700;SDS011;57917;51.380;-0.176;2022-10-24T05:58:42;1.45;;;0.40;;
29700;SDS011;57917;51.380;-0.176;2022-10-24T06:04:29;4.75;;;0.60;;
29700;SDS011;57917;51.380;-0.176;2022-10-24T06:10:16;4.38;;;0.60;;
29700;SDS011;57917;51.380;-0.176;2022-10-24T06:16:07;2.60;;;0.77;;
29700;SDS011;57917;51.380;-0.176;2022-10-24T06:21:55;4.88;;;0.60;;
29700;SDS011;57917;51.380;-0.176;2022-10-24T06:27:42;3.53;;;0.60;;
29700;SDS011;57917;51.380;-0.176;2022-10-24T06:33:30;1.70;;;0.50;;
29700;SDS011;57917;51.380;-0.176;2022-10-24T06:39:17;3.55;;;0.38;;
29700;SDS011;57917;51.380;-0.176;2022-10-24T06:45:09;3.58;;;0.50;;
29700;SDS011;57917;51.380;-0.176;2022-10-24T06:51:08;1.75;;;0.28;;
29700;SDS011;57917;51.380;-0.176;2022-10-24T06:57:00;3.08;;;0.50;;
29700;SDS011;57917;51.380;-0.176;2022-10-24T07:02:46;12.82;;;1.02;;
29700;SDS011;57917;51.380;-0.176;2022-10-24T07:08:34;1.15;;;0.30;;
29700;SDS011;57917;51.380;-0.176;2022-10-24T07:14:22;1.58;;;0.75;;
29700;SDS011;57917;51.380;-0.176;2022-10-24T07:20:12;2.50;;;0.80;;
29700;SDS011;57917;51.380;-0.176;2022-10-24T07:26:10;2.92;;;0.40;;
29700;SDS011;57917;51.380;-0.176;2022-10-24T07:32:02;1.63;;;0.40;;
29700;SDS011;57917;51.380;-0.176;2022-10-24T07:37:52;2.60;;;0.73;;
29700;SDS011;57917;51.380;-0.176;2022-10-24T07:43:39;4.57;;;0.60;;
29700;SDS011;57917;51.380;-0.176;2022-10-24T07:49:27;1.90;;;0.35;;
29700;SDS011;57917;51.380;-0.176;2022-10-24T07:55:19;5.60;;;0.83;;
29700;SDS011;57917;51.380;-0.176;2022-10-24T08:01:07;8.73;;;0.50;;
29700;SDS011;57917;51.380;-0.176;2022-10-24T08:06:57;5.00;;;0.90;;
29700;SDS011;57917;51.380;-0.176;2022-10-24T08:12:44;1.92;;;0.60;;
29700;SDS011;57917;51.380;-0.176;2022-10-24T08:18:32;1.20;;;0.55;;
29700;SDS011;57917;51.380;-0.176;2022-10-24T08:24:24;10.02;;;0.70;;
29700;SDS011;57917;51.380;-0.176;2022-10-24T08:30:14;4.32;;;0.93;;
29700;SDS011;57917;51.380;-0.176;2022-10-24T08:36:19;7.13;;;1.38;;
29700;SDS011;57917;51.380;-0.176;2022-10-24T08:42:14;0.60;;;0.45;;
29700;SDS011;57917;51.380;-0.176;2022-10-24T08:48:04;3.78;;;0.60;;
29700;SDS011;57917;51.380;-0.176;2022-10-24T08:53:54;5.90;;;0.70;;
29700;SDS011;57917;51.380;-0.176;2022-10-24T08:59:45;2.80;;;0.50;;
29700;SDS011;57917;51.380;-0.176;2022-10-24T09:05:39;6.90;;;0.50;;
29700;SDS011;57917;51.380;-0.176;2022-10-24T09:11:30;1.95;;;0.40;;
29700;SDS011;57917;51.380;-0.176;2022-10-24T09:18:08;3.45;;;0.80;;
29700;SDS011;57917;51.380;-0.176;2022-10-24T09:24:04;3.05;;;0.57;;
29700;SDS011;57917;51.380;-0.176;2022-10-24T09:29:53;6.78;;;1.40;;
29700;SDS011;57917;51.380;-0.176;2022-10-24T09:35:42;4.88;;;0.70;;
29700;SDS011;57917;51.380;-0.176;2022-10-24T09:41:30;1.80;;;0.50;;
29700;SDS011;57917;51.380;-0.176;2022-10-24T09:47:25;4.97;;;0.60;;
29700;SDS011;57917;51.380;-0.176;2022-10-24T09:53:24;2.05;;;0.43;;
29700;SDS011;57917;51.380;-0.176;2022-10-24T09:59:31;5.90;;;0.75;;
29700;SDS011;57917;51.380;-0.176;2022-10-24T10:12:23;5.40;;;0.57;;
29700;SDS011;57917;51.380;-0.176;2022-10-24T10:24:37;1.55;;;0.70;;
29700;SDS011;57917;51.380;-0.176;2022-10-24T10:30:27;0.85;;;0.38;;
29700;SDS011;57917;51.380;-0.176;2022-10-24T10:36:27;1.98;;;0.60;;
29700;SDS011;57917;51.380;-0.176;2022-10-24T11:00:30;3.28;;;0.52;;
29700;SDS011;57917;51.380;-0.176;2022-10-24T11:12:51;1.23;;;0.52;;
29700;SDS011;57917;51.380;-0.176;2022-10-24T11:19:01;4.05;;;0.60;;
29700;SDS011;57917;51.380;-0.176;2022-10-24T11:32:26;4.43;;;0.60;;
29700;SDS011;57917;51.380;-0.176;2022-10-24T11:37:48;2.50;;;0.60;;
29700;SDS011;57917;51.380;-0.176;2022-10-24T11:43:38;5.97;;;0.70;;
29700;SDS011;57917;51.380;-0.176;2022-10-24T11:49:41;8.38;;;0.85;;
29700;SDS011;57917;51.380;-0.176;2022-10-24T11:56:32;3.50;;;0.77;;
29700;SDS011;57917;51.380;-0.176;2022-10-24T12:02:49;7.22;;;1.08;;
29700;SDS011;57917;51.380;-0.176;2022-10-24T12:23:03;6.20;;;1.02;;
29700;SDS011;57917;51.380;-0.176;2022-10-24T12:29:06;8.25;;;1.25;;
29700;SDS011;57917;51.380;-0.176;2022-10-24T12:36:07;6.88;;;1.15;;
29700;SDS011;57917;51.380;-0.176;2022-10-24T12:48:30;4.55;;;1.13;;
29700;SDS011;57917;51.380;-0.176;2022-10-24T13:00:28;8.60;;;1.58;;
29700;SDS011;57917;51.380;-0.176;2022-10-24T13:06:26;8.48;;;1.98;;
29700;SDS011;57917;51.380;-0.176;2022-10-24T13:24:21;17.58;;;1.42;;
29700;SDS011;57917;51.380;-0.176;2022-10-24T13:30:23;14.00;;;2.20;;
29700;SDS011;57917;51.380;-0.176;2022-10-24T13:36:13;15.00;;;1.58;;
29700;SDS011;57917;51.380;-0.176;2022-10-24T13:42:18;15.25;;;1.88;;
29700;SDS011;57917;51.380;-0.176;2022-10-24T13:48:19;5.47;;;1.05;;
29700;SDS011;57917;51.380;-0.176;2022-10-24T13:54:18;11.90;;;1.70;;
29700;SDS011;57917;51.380;-0.176;2022-10-24T14:00:17;16.10;;;1.80;;
29700;SDS011;57917;51.380;-0.176;2022-10-24T14:06:09;9.57;;;1.45;;
29700;SDS011;57917;51.380;-0.176;2022-10-24T14:11:57;13.07;;;1.05;;
29700;SDS011;57917;51.380;-0.176;2022-10-24T14:24:00;11.88;;;1.23;;
29700;SDS011;57917;51.380;-0.176;2022-10-24T14:29:58;6.20;;;1.05;;
29700;SDS011;57917;51.380;-0.176;2022-10-24T14:35:48;5.55;;;1.05;;
29700;SDS011;57917;51.380;-0.176;2022-10-24T14:48:13;3.38;;;0.80;;
29700;SDS011;57917;51.380;-0.176;2022-10-24T14:54:19;9.65;;;1.15;;
29700;SDS011;57917;51.380;-0.176;2022-10-24T15:00:17;15.15;;;1.60;;
29700;SDS011;57917;51.380;-0.176;2022-10-24T15:06:15;7.57;;;1.43;;
29700;SDS011;57917;51.380;-0.176;2022-10-24T15:12:09;4.32;;;1.10;;
29700;SDS011;57917;51.380;-0.176;2022-10-24T15:23:53;17.63;;;2.00;;
29700;SDS011;57917;51.380;-0.176;2022-10-24T15:29:44;15.67;;;1.80;;
29700;SDS011;57917;51.380;-0.176;2022-10-24T15:35:39;9.75;;;1.05;;
29700;SDS011;57917;51.380;-0.176;2022-10-24T15:41:29;11.48;;;1.58;;
29700;SDS011;57917;51.380;-0.176;2022-10-24T15:47:16;8.90;;;1.27;;
29700;SDS011;57917;51.380;-0.176;2022-10-24T15:53:03;9.82;;;1.50;;
29700;SDS011;57917;51.380;-0.176;2022-10-24T15:58:50;7.50;;;1.40;;
29700;SDS011;57917;51.380;-0.176;2022-10-24T16:04:38;10.40;;;1.58;;
29700;SDS011;57917;51.380;-0.176;2022-10-24T16:10:25;9.43;;;1.08;;
29700;SDS011;57917;51.380;-0.176;2022-10-24T16:16:15;13.95;;;2.17;;
29700;SDS011;57917;51.380;-0.176;2022-10-24T16:22:14;9.15;;;1.05;;
29700;SDS011;57917;51.380;-0.176;2022-10-24T16:28:04;8.10;;;1.40;;
29700;SDS011;57917;51.380;-0.176;2022-10-24T16:33:56;10.25;;;1.33;;
29700;SDS011;57917;51.380;-0.176;2022-10-24T16:39:51;8.07;;;1.23;;
29700;SDS011;57917;51.380;-0.176;2022-10-24T16:45:39;11.10;;;1.35;;
29700;SDS011;57917;51.380;-0.176;2022-10-24T16:51:28;8.40;;;1.30;;
29700;SDS011;57917;51.380;-0.176;2022-10-24T16:57:33;14.05;;;1.77;;
29700;SDS011;57917;51.380;-0.176;2022-10-24T17:03:29;20.70;;;1.83;;
29700;SDS011;57917;51.380;-0.176;2022-10-24T17:09:21;5.90;;;1.52;;
29700;SDS011;57917;51.380;-0.176;2022-10-24T17:15:17;15.45;;;2.28;;
29700;SDS011;57917;51.380;-0.176;2022-10-24T17:21:08;10.10;;;2.42;;
29700;SDS011;57917;51.380;-0.176;2022-10-24T17:27:18;8.55;;;2.35;;
29700;SDS011;57917;51.380;-0.176;2022-10-24T17:33:05;9.05;;;1.60;;
29700;SDS011;57917;51.380;-0.176;2022-10-24T17:45:20;5.25;;;1.75;;
29700;SDS011;57917;51.380;-0.176;2022-10-24T17:51:09;13.70;;;1.77;;
29700;SDS011;57917;51.380;-0.176;2022-10-24T17:57:03;17.95;;;2.50;;
29700;SDS011;57917;51.380;-0.176;2022-10-24T18:02:52;13.23;;;1.90;;
29700;SDS011;57917;51.380;-0.176;2022-10-24T18:08:40;13.40;;;2.05;;
29700;SDS011;57917;51.380;-0.176;2022-10-24T18:14:27;11.95;;;2.30;;
29700;SDS011;57917;51.380;-0.176;2022-10-24T18:20:15;22.15;;;3.30;;
29700;SDS011;57917;51.380;-0.176;2022-10-24T18:26:07;14.23;;;3.42;;
29700;SDS011;57917;51.380;-0.176;2022-10-24T18:32:00;11.35;;;2.72;;
29700;SDS011;57917;51.380;-0.176;2022-10-24T18:37:53;14.45;;;2.45;;
29700;SDS011;57917;51.380;-0.176;2022-10-24T18:43:41;10.68;;;2.47;;
29700;SDS011;57917;51.380;-0.176;2022-10-24T18:55:53;12.75;;;2.10;;
29700;SDS011;57917;51.380;-0.176;2022-10-24T19:15:41;17.52;;;2.67;;
29700;SDS011;57917;51.380;-0.176;2022-10-24T19:21:32;12.23;;;4.00;;
29700;SDS011;57917;51.380;-0.176;2022-10-24T19:27:19;20.92;;;5.05;;
29700;SDS011;57917;51.380;-0.176;2022-10-24T19:33:08;15.00;;;2.38;;
29700;SDS011;57917;51.380;-0.176;2022-10-24T19:38:55;9.18;;;1.50;;
29700;SDS011;57917;51.380;-0.176;2022-10-24T19:44:50;8.00;;;1.55;;
29700;SDS011;57917;51.380;-0.176;2022-10-24T19:50:48;11.02;;;2.00;;
29700;SDS011;57917;51.380;-0.176;2022-10-24T19:56:35;8.13;;;2.30;;
29700;SDS011;57917;51.380;-0.176;2022-10-24T20:02:22;13.70;;;2.45;;
29700;SDS011;57917;51.380;-0.176;2022-10-24T20:08:23;12.52;;;1.88;;
29700;SDS011;57917;51.380;-0.176;2022-10-24T20:14:12;17.83;;;2.75;;
29700;SDS011;57917;51.380;-0.176;2022-10-24T20:20:03;9.38;;;2.15;;
29700;SDS011;57917;51.380;-0.176;2022-10-24T20:25:58;17.50;;;4.07;;
29700;SDS011;57917;51.380;-0.176;2022-10-24T20:31:48;15.43;;;2.75;;
29700;SDS011;57917;51.380;-0.176;2022-10-24T20:37:34;14.32;;;2.20;;
29700;SDS011;57917;51.380;-0.176;2022-10-24T20:43:21;6.18;;;1.98;;
29700;SDS011;57917;51.380;-0.176;2022-10-24T20:49:08;9.25;;;3.10;;
29700;SDS011;57917;51.380;-0.176;2022-10-24T20:54:55;12.07;;;1.70;;
29700;SDS011;57917;51.380;-0.176;2022-10-24T21:01:19;14.85;;;1.77;;
29700;SDS011;57917;51.380;-0.176;2022-10-24T21:07:15;11.18;;;1.95;;
29700;SDS011;57917;51.380;-0.176;2022-10-24T21:19:37;10.30;;;1.92;;
29700;SDS011;57917;51.380;-0.176;2022-10-24T21:25:30;8.63;;;1.30;;
29700;SDS011;57917;51.380;-0.176;2022-10-24T21:31:18;4.10;;;1.00;;
29700;SDS011;57917;51.380;-0.176;2022-10-24T21:37:07;4.32;;;0.85;;
29700;SDS011;57917;51.380;-0.176;2022-10-24T21:42:54;13.75;;;1.42;;
29700;SDS011;57917;51.380;-0.176;2022-10-24T21:48:41;10.35;;;2.05;;
29700;SDS011;57917;51.380;-0.176;2022-10-24T21:54:28;10.80;;;2.67;;
29700;SDS011;57917;51.380;-0.176;2022-10-24T22:00:20;6.32;;;1.63;;
29700;SDS011;57917;51.380;-0.176;2022-10-24T22:06:26;11.05;;;1.27;;
29700;SDS011;57917;51.380;-0.176;2022-10-24T22:12:16;9.23;;;1.05;;
29700;SDS011;57917;51.380;-0.176;2022-10-24T22:18:06;8.85;;;1.42;;
29700;SDS011;57917;51.380;-0.176;2022-10-24T22:23:56;10.10;;;1.13;;
29700;SDS011;57917;51.380;-0.176;2022-10-24T22:29:47;6.25;;;0.90;;
29700;SDS011;57917;51.380;-0.176;2022-10-24T22:35:41;4.50;;;1.25;;
29700;SDS011;57917;51.380;-0.176;2022-10-24T22:41:33;6.17;;;1.33;;
29700;SDS011;57917;51.380;-0.176;2022-10-24T22:47:25;5.13;;;1.02;;
29700;SDS011;57917;51.380;-0.176;2022-10-24T22:53:21;5.90;;;0.82;;
29700;SDS011;57917;51.380;-0.176;2022-10-24T22:59:17;6.95;;;1.33;;
29700;SDS011;57917;51.380;-0.176;2022-10-24T23:11:02;8.90;;;1.33;;
29700;SDS011;57917;51.380;-0.176;2022-10-24T23:24:42;5.95;;;1.00;;
29700;SDS011;57917;51.380;-0.176;2022-10-24T23:30:29;7.30;;;0.70;;
29700;SDS011;57917;51.380;-0.176;2022-10-24T23:36:20;7.35;;;1.30;;
29700;SDS011;57917;51.380;-0.176;2022-10-24T23:42:16;7.07;;;0.90;;
29700;SDS011;57917;51.380;-0.176;2022-10-24T23:54:13;8.20;;;1.20;;
